sensor_id;sensor_type;location;lat;lon;timestamp;pressure;altitude;pressure_sealevel;temperature;humidity
57763;BME280;43592;42.524;12.052;2022-07-30T00:01:32;96759.38;;;21.68;100.00
57763;BME280;43592;42.524;12.052;2022-07-30T00:03:58;96766.09;;;21.63;100.00
57763;BME280;43592;42.524;12.052;2022-07-30T00:06:24;96755.97;;;21.64;100.00
57763;BME280;43592;42.524;12.052;2022-07-30T00:08:49;96751.28;;;21.64;100.00
57763;BME280;43592;42.524;12.052;2022-07-30T00:11:15;96754.38;;;21.66;100.00
57763;BME280;43592;42.524;12.052;2022-07-30T00:13:40;96748.94;;;21.66;100.00
57763;BME280;43592;42.524;12.052;2022-07-30T00:16:06;96746.59;;;21.65;100.00
57763;BME280;43592;42.524;12.052;2022-07-30T00:18:31;96731.06;;;21.62;100.00
57763;BME280;43592;42.524;12.052;2022-07-30T00:20:57;96734.56;;;21.62;100.00
57763;BME280;43592;42.524;12.052;2022-07-30T00:23:22;96715.47;;;21.66;100.00
57763;BME280;43592;42.524;12.052;2022-07-30T00:25:48;96719.72;;;21.67;100.00
57763;BME280;43592;42.524;12.052;2022-07-30T00:28:13;96718.50;;;21.71;100.00
57763;BME280;43592;42.524;12.052;2022-07-30T00:30:39;96720.72;;;21.80;100.00
57763;BME280;43592;42.524;12.052;2022-07-30T00:33:05;96709.88;;;21.77;100.00
57763;BME280;43592;42.524;12.052;2022-07-30T00:35:31;96702.06;;;21.79;100.00
57763;BME280;43592;42.524;12.052;2022-07-30T00:37:56;96707.88;;;21.81;100.00
57763;BME280;43592;42.524;12.052;2022-07-30T00:40:22;96709.34;;;21.85;100.00
57763;BME280;43592;42.524;12.052;2022-07-30T00:42:48;96706.28;;;21.83;100.00
57763;BME280;43592;42.524;12.052;2022-07-30T00:45:14;96715.28;;;21.80;100.00
57763;BME280;43592;42.524;12.052;2022-07-30T00:47:40;96710.66;;;21.77;100.00
57763;BME280;43592;42.524;12.052;2022-07-30T00:50:07;96712.56;;;21.80;100.00
57763;BME280;43592;42.524;12.052;2022-07-30T00:54:59;96705.84;;;21.85;100.00
57763;BME280;43592;42.524;12.052;2022-07-30T00:57:25;96699.19;;;21.89;100.00
57763;BME280;43592;42.524;12.052;2022-07-30T00:59:50;96705.03;;;21.88;100.00
57763;BME280;43592;42.524;12.052;2022-07-30T01:02:16;96698.06;;;21.87;100.00
57763;BME280;43592;42.524;12.052;2022-07-30T01:04:41;96684.44;;;21.87;100.00
57763;BME280;43592;42.524;12.052;2022-07-30T01:07:07;96685.56;;;21.89;100.00
57763;BME280;43592;42.524;12.052;2022-07-30T01:09:32;96684.81;;;21.89;100.00
57763;BME280;43592;42.524;12.052;2022-07-30T01:11:58;96690.25;;;21.89;100.00
57763;BME280;43592;42.524;12.052;2022-07-30T01:14:23;96684.81;;;21.89;100.00
57763;BME280;43592;42.524;12.052;2022-07-30T01:16:49;96687.16;;;21.87;100.00
57763;BME280;43592;42.524;12.052;2022-07-30T01:19:27;96683.66;;;21.86;100.00
57763;BME280;43592;42.524;12.052;2022-07-30T01:27:35;96690.03;;;21.76;100.00
57763;BME280;43592;42.524;12.052;2022-07-30T01:30:03;96685.41;;;21.73;100.00
57763;BME280;43592;42.524;12.052;2022-07-30T01:32:29;96683.50;;;21.70;100.00
57763;BME280;43592;42.524;12.052;2022-07-30T01:34:56;96688.59;;;21.68;100.00
57763;BME280;43592;42.524;12.052;2022-07-30T01:37:23;96683.97;;;21.65;100.00
57763;BME280;43592;42.524;12.052;2022-07-30T01:39:49;96678.53;;;21.65;100.00
57763;BME280;43592;42.524;12.052;2022-07-30T01:42:15;96682.00;;;21.65;100.00
57763;BME280;43592;42.524;12.052;2022-07-30T01:44:42;96677.75;;;21.64;100.00
57763;BME280;43592;42.524;12.052;2022-07-30T01:47:09;96671.94;;;21.62;100.00
57763;BME280;43592;42.524;12.052;2022-07-30T01:49:35;96674.72;;;21.59;100.00
57763;BME280;43592;42.524;12.052;2022-07-30T01:52:02;96680.59;;;21.57;100.00
57763;BME280;43592;42.524;12.052;2022-07-30T01:54:29;96677.56;;;21.51;100.00
57763;BME280;43592;42.524;12.052;2022-07-30T01:56:56;96665.56;;;21.45;100.00
57763;BME280;43592;42.524;12.052;2022-07-30T01:59:22;96665.63;;;21.42;100.00
57763;BME280;43592;42.524;12.052;2022-07-30T02:01:49;96660.22;;;21.38;100.00
57763;BME280;43592;42.524;12.052;2022-07-30T02:04:15;96670.34;;;21.34;100.00
57763;BME280;43592;42.524;12.052;2022-07-30T02:06:45;96664.97;;;21.30;100.00
57763;BME280;43592;42.524;12.052;2022-07-30T02:09:13;96663.78;;;21.32;100.00
57763;BME280;43592;42.524;12.052;2022-07-30T02:11:40;96656.03;;;21.30;100.00
57763;BME280;43592;42.524;12.052;2022-07-30T02:14:27;96662.25;;;21.30;100.00
57763;BME280;43592;42.524;12.052;2022-07-30T02:16:54;96654.06;;;21.30;100.00
57763;BME280;43592;42.524;12.052;2022-07-30T02:19:28;96659.94;;;21.29;100.00
57763;BME280;43592;42.524;12.052;2022-07-30T02:21:58;96656.47;;;21.25;100.00
57763;BME280;43592;42.524;12.052;2022-07-30T02:24:26;96656.94;;;21.20;100.00
57763;BME280;43592;42.524;12.052;2022-07-30T02:27:04;96655.06;;;21.13;100.00
57763;BME280;43592;42.524;12.052;2022-07-30T02:29:32;96660.19;;;21.07;100.00
57763;BME280;43592;42.524;12.052;2022-07-30T02:31:58;96654.81;;;21.00;100.00
57763;BME280;43592;42.524;12.052;2022-07-30T02:34:25;96663.09;;;20.93;100.00
57763;BME280;43592;42.524;12.052;2022-07-30T02:36:51;96661.56;;;20.89;100.00
57763;BME280;43592;42.524;12.052;2022-07-30T02:39:18;96655.03;;;20.82;100.00
57763;BME280;43592;42.524;12.052;2022-07-30T02:41:45;96646.50;;;20.80;100.00
57763;BME280;43592;42.524;12.052;2022-07-30T02:44:11;96648.47;;;20.80;100.00
57763;BME280;43592;42.524;12.052;2022-07-30T02:46:37;96644.22;;;20.79;100.00
57763;BME280;43592;42.524;12.052;2022-07-30T02:49:03;96648.88;;;20.78;100.00
57763;BME280;43592;42.524;12.052;2022-07-30T02:51:29;96640.34;;;20.76;100.00
57763;BME280;43592;42.524;12.052;2022-07-30T02:53:56;96642.38;;;20.69;100.00
57763;BME280;43592;42.524;12.052;2022-07-30T02:56:23;96643.63;;;20.60;100.00
57763;BME280;43592;42.524;12.052;2022-07-30T02:58:49;96637.50;;;20.53;100.00
57763;BME280;43592;42.524;12.052;2022-07-30T03:01:15;96633.69;;;20.43;100.00
57763;BME280;43592;42.524;12.052;2022-07-30T03:03:42;96638.44;;;20.35;100.00
57763;BME280;43592;42.524;12.052;2022-07-30T03:06:08;96646.59;;;20.32;100.00
57763;BME280;43592;42.524;12.052;2022-07-30T03:08:36;96641.97;;;20.29;100.00
57763;BME280;43592;42.524;12.052;2022-07-30T03:11:01;96630.38;;;20.25;100.00
57763;BME280;43592;42.524;12.052;2022-07-30T03:13:27;96633.91;;;20.22;100.00
57763;BME280;43592;42.524;12.052;2022-07-30T03:15:53;96630.44;;;20.17;100.00
57763;BME280;43592;42.524;12.052;2022-07-30T03:18:21;96617.28;;;20.12;100.00
57763;BME280;43592;42.524;12.052;2022-07-30T03:20:49;96613.78;;;20.12;100.00
57763;BME280;43592;42.524;12.052;2022-07-30T03:23:16;96612.59;;;20.16;100.00
57763;BME280;43592;42.524;12.052;2022-07-30T03:25:43;96609.91;;;20.13;100.00
57763;BME280;43592;42.524;12.052;2022-07-30T03:28:10;96612.63;;;20.13;100.00
57763;BME280;43592;42.524;12.052;2022-07-30T03:30:36;96612.97;;;20.15;100.00
57763;BME280;43592;42.524;12.052;2022-07-30T03:33:01;96614.91;;;20.18;100.00
57763;BME280;43592;42.524;12.052;2022-07-30T03:35:27;96614.88;;;20.22;100.00
57763;BME280;43592;42.524;12.052;2022-07-30T03:37:53;96612.13;;;20.25;100.00
57763;BME280;43592;42.524;12.052;2022-07-30T03:40:19;96609.00;;;20.27;100.00
57763;BME280;43592;42.524;12.052;2022-07-30T03:42:45;96615.94;;;20.31;100.00
57763;BME280;43592;42.524;12.052;2022-07-30T03:45:11;96618.94;;;20.40;100.00
57763;BME280;43592;42.524;12.052;2022-07-30T03:47:38;96621.59;;;20.48;100.00
57763;BME280;43592;42.524;12.052;2022-07-30T03:50:04;96625.00;;;20.59;100.00
57763;BME280;43592;42.524;12.052;2022-07-30T03:52:34;96629.19;;;20.67;100.00
57763;BME280;43592;42.524;12.052;2022-07-30T03:54:59;96632.59;;;20.75;100.00
57763;BME280;43592;42.524;12.052;2022-07-30T03:57:26;96632.56;;;20.78;100.00
57763;BME280;43592;42.524;12.052;2022-07-30T03:59:52;96636.81;;;20.79;100.00
57763;BME280;43592;42.524;12.052;2022-07-30T04:02:18;96640.72;;;20.78;100.00
57763;BME280;43592;42.524;12.052;2022-07-30T04:04:43;96644.97;;;20.79;100.00
57763;BME280;43592;42.524;12.052;2022-07-30T04:07:09;96649.59;;;20.82;100.00
57763;BME280;43592;42.524;12.052;2022-07-30T04:09:34;96642.59;;;20.85;100.00
57763;BME280;43592;42.524;12.052;2022-07-30T04:12:00;96641.78;;;20.88;100.00
57763;BME280;43592;42.524;12.052;2022-07-30T04:14:26;96643.78;;;20.84;100.00
57763;BME280;43592;42.524;12.052;2022-07-30T04:17:25;96648.88;;;20.78;100.00
57763;BME280;43592;42.524;12.052;2022-07-30T04:22:32;96637.41;;;20.60;100.00
57763;BME280;43592;42.524;12.052;2022-07-30T04:24:59;96640.22;;;20.53;100.00
57763;BME280;43592;42.524;12.052;2022-07-30T04:27:26;96650.75;;;20.47;100.00
57763;BME280;43592;42.524;12.052;2022-07-30T04:29:52;96646.13;;;20.40;100.00
57763;BME280;43592;42.524;12.052;2022-07-30T04:32:18;96650.84;;;20.36;100.00
57763;BME280;43592;42.524;12.052;2022-07-30T04:34:47;96657.47;;;20.32;100.00
57763;BME280;43592;42.524;12.052;2022-07-30T04:37:14;96666.84;;;20.27;100.00
57763;BME280;43592;42.524;12.052;2022-07-30T04:39:39;96671.91;;;20.25;100.00
57763;BME280;43592;42.524;12.052;2022-07-30T04:42:05;96669.94;;;20.26;100.00
57763;BME280;43592;42.524;12.052;2022-07-30T04:44:30;96671.09;;;20.28;100.00
57763;BME280;43592;42.524;12.052;2022-07-30T04:46:56;96664.91;;;20.28;100.00
57763;BME280;43592;42.524;12.052;2022-07-30T04:49:22;96667.19;;;20.29;100.00
57763;BME280;43592;42.524;12.052;2022-07-30T04:51:47;96671.84;;;20.29;100.00
57763;BME280;43592;42.524;12.052;2022-07-30T04:54:13;96666.03;;;20.30;100.00
57763;BME280;43592;42.524;12.052;2022-07-30T04:56:39;96658.66;;;20.31;100.00
57763;BME280;43592;42.524;12.052;2022-07-30T04:59:05;96666.75;;;20.34;100.00
57763;BME280;43592;42.524;12.052;2022-07-30T05:01:33;96667.91;;;20.37;100.00
57763;BME280;43592;42.524;12.052;2022-07-30T05:03:59;96676.44;;;20.39;100.00
57763;BME280;43592;42.524;12.052;2022-07-30T05:06:25;96680.69;;;20.40;100.00
57763;BME280;43592;42.524;12.052;2022-07-30T05:08:52;96676.41;;;20.42;100.00
57763;BME280;43592;42.524;12.052;2022-07-30T05:11:17;96681.78;;;20.46;100.00
57763;BME280;43592;42.524;12.052;2022-07-30T05:13:43;96682.53;;;20.50;100.00
57763;BME280;43592;42.524;12.052;2022-07-30T05:16:10;96685.63;;;20.56;100.00
57763;BME280;43592;42.524;12.052;2022-07-30T05:18:36;96685.59;;;20.59;100.00
57763;BME280;43592;42.524;12.052;2022-07-30T05:21:02;96689.81;;;20.64;100.00
57763;BME280;43592;42.524;12.052;2022-07-30T05:23:28;96690.16;;;20.70;100.00
57763;BME280;43592;42.524;12.052;2022-07-30T05:25:53;96693.97;;;20.76;100.00
57763;BME280;43592;42.524;12.052;2022-07-30T05:28:19;96697.78;;;20.82;100.00
57763;BME280;43592;42.524;12.052;2022-07-30T05:30:44;96692.28;;;20.89;100.00
57763;BME280;43592;42.524;12.052;2022-07-30T05:33:10;96703.06;;;20.96;100.00
57763;BME280;43592;42.524;12.052;2022-07-30T05:35:35;96700.28;;;21.03;100.00
57763;BME280;43592;42.524;12.052;2022-07-30T05:38:00;96697.09;;;21.08;100.00
57763;BME280;43592;42.524;12.052;2022-07-30T05:40:26;96705.59;;;21.14;100.00
57763;BME280;43592;42.524;12.052;2022-07-30T05:42:51;96704.75;;;21.21;100.00
57763;BME280;43592;42.524;12.052;2022-07-30T05:45:17;96713.56;;;21.28;100.00
57763;BME280;43592;42.524;12.052;2022-07-30T05:47:42;96709.25;;;21.35;100.00
57763;BME280;43592;42.524;12.052;2022-07-30T05:50:08;96724.31;;;21.43;100.00
57763;BME280;43592;42.524;12.052;2022-07-30T05:52:33;96716.44;;;21.52;100.00
57763;BME280;43592;42.524;12.052;2022-07-30T05:54:59;96714.34;;;21.63;100.00
57763;BME280;43592;42.524;12.052;2022-07-30T05:57:24;96726.25;;;21.73;100.00
57763;BME280;43592;42.524;12.052;2022-07-30T05:59:50;96724.09;;;21.88;100.00
57763;BME280;43592;42.524;12.052;2022-07-30T06:02:15;96730.53;;;22.01;100.00
57763;BME280;43592;42.524;12.052;2022-07-30T06:04:40;96722.09;;;22.19;100.00
57763;BME280;43592;42.524;12.052;2022-07-30T06:07:06;96721.78;;;22.40;100.00
57763;BME280;43592;42.524;12.052;2022-07-30T06:09:32;96724.78;;;22.70;96.65
57763;BME280;43592;42.524;12.052;2022-07-30T06:11:57;96723.75;;;23.27;91.00
57763;BME280;43592;42.524;12.052;2022-07-30T06:14:23;96720.94;;;24.03;86.10
57763;BME280;43592;42.524;12.052;2022-07-30T06:16:48;96713.16;;;24.83;82.48
57763;BME280;43592;42.524;12.052;2022-07-30T06:19:14;96720.53;;;25.70;77.51
57763;BME280;43592;42.524;12.052;2022-07-30T06:21:39;96716.38;;;26.55;72.94
57763;BME280;43592;42.524;12.052;2022-07-30T06:24:05;96715.16;;;27.13;69.36
57763;BME280;43592;42.524;12.052;2022-07-30T06:26:30;96718.13;;;27.72;64.99
57763;BME280;43592;42.524;12.052;2022-07-30T06:28:56;96727.13;;;28.44;62.48
57763;BME280;43592;42.524;12.052;2022-07-30T06:31:21;96721.69;;;28.99;60.58
57763;BME280;43592;42.524;12.052;2022-07-30T06:33:47;96729.03;;;29.30;59.06
57763;BME280;43592;42.524;12.052;2022-07-30T06:36:12;96726.38;;;29.54;57.82
57763;BME280;43592;42.524;12.052;2022-07-30T06:38:38;96727.13;;;29.64;57.98
57763;BME280;43592;42.524;12.052;2022-07-30T06:41:03;96734.88;;;29.84;58.22
57763;BME280;43592;42.524;12.052;2022-07-30T06:43:28;96728.91;;;30.18;56.94
57763;BME280;43592;42.524;12.052;2022-07-30T06:45:54;96729.66;;;30.28;56.55
57763;BME280;43592;42.524;12.052;2022-07-30T06:48:19;96729.06;;;30.48;55.95
57763;BME280;43592;42.524;12.052;2022-07-30T06:50:45;96727.13;;;30.87;54.15
57763;BME280;43592;42.524;12.052;2022-07-30T06:53:11;96728.06;;;31.23;53.36
57763;BME280;43592;42.524;12.052;2022-07-30T06:55:37;96727.16;;;31.56;52.02
57763;BME280;43592;42.524;12.052;2022-07-30T06:58:02;96727.53;;;31.79;51.82
57763;BME280;43592;42.524;12.052;2022-07-30T07:00:28;96730.47;;;31.90;51.18
57763;BME280;43592;42.524;12.052;2022-07-30T07:02:53;96732.97;;;32.03;50.36
57763;BME280;43592;42.524;12.052;2022-07-30T07:05:19;96735.06;;;32.08;50.39
57763;BME280;43592;42.524;12.052;2022-07-30T07:07:46;96723.19;;;32.22;50.26
57763;BME280;43592;42.524;12.052;2022-07-30T07:10:11;96719.63;;;32.57;48.57
57763;BME280;43592;42.524;12.052;2022-07-30T07:12:37;96727.31;;;32.88;47.40
57763;BME280;43592;42.524;12.052;2022-07-30T07:15:02;96729.56;;;33.04;47.45
57763;BME280;43592;42.524;12.052;2022-07-30T07:17:28;96724.69;;;32.99;47.01
57763;BME280;43592;42.524;12.052;2022-07-30T07:19:53;96719.88;;;33.20;46.88
57763;BME280;43592;42.524;12.052;2022-07-30T07:22:19;96714.59;;;33.48;46.39
57763;BME280;43592;42.524;12.052;2022-07-30T07:24:44;96712.56;;;33.43;45.56
57763;BME280;43592;42.524;12.052;2022-07-30T07:27:10;96706.97;;;33.38;45.87
57763;BME280;43592;42.524;12.052;2022-07-30T07:29:35;96723.72;;;33.28;45.29
57763;BME280;43592;42.524;12.052;2022-07-30T07:32:01;96713.56;;;33.46;45.92
57763;BME280;43592;42.524;12.052;2022-07-30T07:34:26;96709.81;;;33.75;45.94
57763;BME280;43592;42.524;12.052;2022-07-30T07:36:52;96709.13;;;33.86;45.19
57763;BME280;43592;42.524;12.052;2022-07-30T07:39:17;96707.38;;;34.20;43.91
57763;BME280;43592;42.524;12.052;2022-07-30T07:41:43;96705.13;;;34.24;43.43
57763;BME280;43592;42.524;12.052;2022-07-30T07:44:08;96713.97;;;34.28;42.95
57763;BME280;43592;42.524;12.052;2022-07-30T07:46:33;96717.28;;;34.32;43.83
57763;BME280;43592;42.524;12.052;2022-07-30T07:48:59;96711.81;;;34.49;43.32
57763;BME280;43592;42.524;12.052;2022-07-30T07:51:24;96707.09;;;34.61;41.99
57763;BME280;43592;42.524;12.052;2022-07-30T07:53:50;96712.44;;;34.76;41.41
57763;BME280;43592;42.524;12.052;2022-07-30T07:56:15;96703.97;;;35.02;41.22
57763;BME280;43592;42.524;12.052;2022-07-30T07:58:41;96703.75;;;35.11;40.55
57763;BME280;43592;42.524;12.052;2022-07-30T08:01:06;96700.75;;;35.31;40.66
57763;BME280;43592;42.524;12.052;2022-07-30T08:03:32;96716.66;;;35.20;40.19
57763;BME280;43592;42.524;12.052;2022-07-30T08:05:57;96714.63;;;35.20;40.25
57763;BME280;43592;42.524;12.052;2022-07-30T08:08:25;96704.69;;;34.91;40.94
57763;BME280;43592;42.524;12.052;2022-07-30T08:10:51;96713.25;;;34.87;40.52
57763;BME280;43592;42.524;12.052;2022-07-30T08:13:16;96708.38;;;34.66;39.71
57763;BME280;43592;42.524;12.052;2022-07-30T08:15:42;96715.97;;;34.71;39.54
57763;BME280;43592;42.524;12.052;2022-07-30T08:18:07;96711.63;;;34.58;39.94
57763;BME280;43592;42.524;12.052;2022-07-30T08:20:35;96710.25;;;34.91;39.50
57763;BME280;43592;42.524;12.052;2022-07-30T08:23:01;96713.09;;;35.14;36.39
57763;BME280;43592;42.524;12.052;2022-07-30T08:25:26;96714.66;;;35.31;35.65
57763;BME280;43592;42.524;12.052;2022-07-30T08:27:52;96712.63;;;35.43;35.61
57763;BME280;43592;42.524;12.052;2022-07-30T08:30:18;96706.41;;;34.83;35.16
57763;BME280;43592;42.524;12.052;2022-07-30T08:32:44;96701.19;;;34.48;36.69
57763;BME280;43592;42.524;12.052;2022-07-30T08:35:09;96704.69;;;33.68;37.96
57763;BME280;43592;42.524;12.052;2022-07-30T08:37:35;96712.28;;;32.74;38.86
57763;BME280;43592;42.524;12.052;2022-07-30T08:40:01;96707.56;;;31.89;40.42
57763;BME280;43592;42.524;12.052;2022-07-30T08:42:27;96704.84;;;32.25;40.67
57763;BME280;43592;42.524;12.052;2022-07-30T08:44:53;96714.75;;;31.81;40.06
57763;BME280;43592;42.524;12.052;2022-07-30T08:47:22;96718.06;;;32.50;38.28
57763;BME280;43592;42.524;12.052;2022-07-30T08:49:49;96708.88;;;33.31;39.01
57763;BME280;43592;42.524;12.052;2022-07-30T08:52:15;96697.47;;;34.13;37.52
57763;BME280;43592;42.524;12.052;2022-07-30T08:54:41;96696.38;;;35.02;36.66
57763;BME280;43592;42.524;12.052;2022-07-30T08:57:07;96689.38;;;35.86;35.05
57763;BME280;43592;42.524;12.052;2022-07-30T08:59:33;96691.13;;;36.23;33.80
57763;BME280;43592;42.524;12.052;2022-07-30T09:01:58;96696.44;;;36.09;34.48
57763;BME280;43592;42.524;12.052;2022-07-30T09:04:24;96704.31;;;35.94;33.84
57763;BME280;43592;42.524;12.052;2022-07-30T09:06:49;96701.81;;;35.68;34.69
57763;BME280;43592;42.524;12.052;2022-07-30T09:09:15;96694.94;;;35.46;34.92
57763;BME280;43592;42.524;12.052;2022-07-30T09:11:40;96703.03;;;35.50;35.72
57763;BME280;43592;42.524;12.052;2022-07-30T09:14:12;96697.47;;;35.72;34.96
57763;BME280;43592;42.524;12.052;2022-07-30T09:16:38;96696.72;;;35.94;34.76
57763;BME280;43592;42.524;12.052;2022-07-30T09:19:19;96689.13;;;36.06;34.19
57763;BME280;43592;42.524;12.052;2022-07-30T09:22:00;96692.06;;;36.53;33.73
57763;BME280;43592;42.524;12.052;2022-07-30T09:24:26;96696.38;;;36.43;32.48
57763;BME280;43592;42.524;12.052;2022-07-30T09:26:56;96696.66;;;36.34;33.88
57763;BME280;43592;42.524;12.052;2022-07-30T09:29:23;96686.22;;;36.57;32.26
57763;BME280;43592;42.524;12.052;2022-07-30T09:31:59;96698.19;;;36.29;32.82
57763;BME280;43592;42.524;12.052;2022-07-30T09:36:50;96701.53;;;35.88;32.75
57763;BME280;43592;42.524;12.052;2022-07-30T09:39:26;96704.31;;;35.88;32.70
57763;BME280;43592;42.524;12.052;2022-07-30T09:41:53;96701.78;;;36.18;32.43
57763;BME280;43592;42.524;12.052;2022-07-30T09:44:24;96706.47;;;36.46;31.32
57763;BME280;43592;42.524;12.052;2022-07-30T09:46:51;96702.16;;;36.62;30.06
57763;BME280;43592;42.524;12.052;2022-07-30T09:49:17;96698.75;;;35.77;31.57
57763;BME280;43592;42.524;12.052;2022-07-30T09:51:43;96695.31;;;34.89;35.04
57763;BME280;43592;42.524;12.052;2022-07-30T09:54:09;96689.59;;;35.20;35.27
57763;BME280;43592;42.524;12.052;2022-07-30T09:56:34;96688.63;;;35.46;34.48
57763;BME280;43592;42.524;12.052;2022-07-30T09:59:00;96678.88;;;34.74;35.77
57763;BME280;43592;42.524;12.052;2022-07-30T10:01:25;96678.28;;;34.10;36.59
57763;BME280;43592;42.524;12.052;2022-07-30T10:03:52;96678.06;;;33.50;38.17
57763;BME280;43592;42.524;12.052;2022-07-30T10:06:18;96670.91;;;33.12;38.38
57763;BME280;43592;42.524;12.052;2022-07-30T10:08:47;96668.72;;;33.47;38.44
57763;BME280;43592;42.524;12.052;2022-07-30T10:11:23;96657.09;;;34.12;35.80
57763;BME280;43592;42.524;12.052;2022-07-30T10:13:52;96664.72;;;34.83;34.83
57763;BME280;43592;42.524;12.052;2022-07-30T10:16:18;96656.16;;;34.98;34.23
57763;BME280;43592;42.524;12.052;2022-07-30T10:18:43;96652.97;;;35.39;33.41
57763;BME280;43592;42.524;12.052;2022-07-30T10:21:09;96657.53;;;35.81;33.67
57763;BME280;43592;42.524;12.052;2022-07-30T10:23:35;96656.34;;;36.40;32.57
57763;BME280;43592;42.524;12.052;2022-07-30T10:26:02;96653.94;;;36.09;34.15
57763;BME280;43592;42.524;12.052;2022-07-30T10:28:30;96656.53;;;35.56;34.01
57763;BME280;43592;42.524;12.052;2022-07-30T10:30:56;96654.88;;;34.93;35.81
57763;BME280;43592;42.524;12.052;2022-07-30T10:33:24;96654.59;;;34.74;35.73
57763;BME280;43592;42.524;12.052;2022-07-30T10:35:50;96645.59;;;34.36;35.70
57763;BME280;43592;42.524;12.052;2022-07-30T10:38:15;96651.31;;;34.16;35.81
57763;BME280;43592;42.524;12.052;2022-07-30T10:40:46;96654.53;;;33.71;35.73
57763;BME280;43592;42.524;12.052;2022-07-30T10:46:08;96638.44;;;34.78;34.92
57763;BME280;43592;42.524;12.052;2022-07-30T10:48:37;96638.69;;;34.75;34.08
57763;BME280;43592;42.524;12.052;2022-07-30T10:51:03;96640.31;;;35.21;32.90
57763;BME280;43592;42.524;12.052;2022-07-30T10:53:41;96635.22;;;35.87;32.17
57763;BME280;43592;42.524;12.052;2022-07-30T10:56:11;96643.06;;;35.94;30.67
57763;BME280;43592;42.524;12.052;2022-07-30T11:01:22;96634.75;;;35.32;32.87
57763;BME280;43592;42.524;12.052;2022-07-30T11:06:32;96632.59;;;34.71;34.64
57763;BME280;43592;42.524;12.052;2022-07-30T11:08:57;96622.31;;;34.23;34.92
57763;BME280;43592;42.524;12.052;2022-07-30T11:16:15;96613.47;;;33.44;36.42
57763;BME280;43592;42.524;12.052;2022-07-30T11:21:25;96616.31;;;32.97;37.60
57763;BME280;43592;42.524;12.052;2022-07-30T11:23:51;96622.66;;;32.77;37.22
57763;BME280;43592;42.524;12.052;2022-07-30T11:29:01;96611.50;;;32.46;38.22
57763;BME280;43592;42.524;12.052;2022-07-30T11:31:28;96612.41;;;32.83;37.78
57763;BME280;43592;42.524;12.052;2022-07-30T11:37:24;96608.63;;;34.79;33.56
57763;BME280;43592;42.524;12.052;2022-07-30T11:40:04;96604.34;;;35.90;33.17
57763;BME280;43592;42.524;12.052;2022-07-30T11:42:27;96589.50;;;36.88;31.04
57763;BME280;43592;42.524;12.052;2022-07-30T11:47:55;96573.84;;;37.50;30.26
57763;BME280;43592;42.524;12.052;2022-07-30T11:50:25;96569.25;;;36.87;30.43
57763;BME280;43592;42.524;12.052;2022-07-30T11:52:55;96570.16;;;36.01;32.34
57763;BME280;43592;42.524;12.052;2022-07-30T11:55:21;96570.75;;;35.43;33.77
57763;BME280;43592;42.524;12.052;2022-07-30T11:57:47;96562.97;;;35.14;34.06
57763;BME280;43592;42.524;12.052;2022-07-30T12:00:13;96567.75;;;35.30;34.05
57763;BME280;43592;42.524;12.052;2022-07-30T12:02:38;96560.91;;;34.97;34.09
57763;BME280;43592;42.524;12.052;2022-07-30T12:05:04;96562.06;;;34.46;33.01
57763;BME280;43592;42.524;12.052;2022-07-30T12:07:30;96555.88;;;33.65;33.68
57763;BME280;43592;42.524;12.052;2022-07-30T12:12:40;96573.91;;;31.63;47.34
57763;BME280;43592;42.524;12.052;2022-07-30T12:15:06;96585.50;;;30.09;53.11
57763;BME280;43592;42.524;12.052;2022-07-30T12:17:41;96596.25;;;28.71;64.30
57763;BME280;43592;42.524;12.052;2022-07-30T12:20:16;96608.63;;;27.30;72.44
57763;BME280;43592;42.524;12.052;2022-07-30T12:22:43;96608.13;;;26.22;84.65
57763;BME280;43592;42.524;12.052;2022-07-30T12:25:09;96611.13;;;25.25;92.46
57763;BME280;43592;42.524;12.052;2022-07-30T12:27:34;96633.78;;;23.92;100.00
57763;BME280;43592;42.524;12.052;2022-07-30T12:30:00;96626.84;;;22.55;93.66
57763;BME280;43592;42.524;12.052;2022-07-30T12:32:26;96672.16;;;21.14;95.96
57763;BME280;43592;42.524;12.052;2022-07-30T12:34:55;96669.94;;;20.26;100.00
57763;BME280;43592;42.524;12.052;2022-07-30T12:37:21;96745.31;;;19.48;100.00
57763;BME280;43592;42.524;12.052;2022-07-30T12:39:47;96664.41;;;19.25;100.00
57763;BME280;43592;42.524;12.052;2022-07-30T12:42:19;96616.00;;;19.13;100.00
57763;BME280;43592;42.524;12.052;2022-07-30T12:44:51;96617.56;;;19.10;100.00
57763;BME280;43592;42.524;12.052;2022-07-30T12:47:49;96611.00;;;19.07;100.00
57763;BME280;43592;42.524;12.052;2022-07-30T12:53:11;96595.47;;;19.15;100.00
57763;BME280;43592;42.524;12.052;2022-07-30T12:55:36;96600.81;;;19.29;100.00
57763;BME280;43592;42.524;12.052;2022-07-30T12:58:03;96606.25;;;19.29;100.00
57763;BME280;43592;42.524;12.052;2022-07-30T13:00:30;96598.41;;;19.39;100.00
57763;BME280;43592;42.524;12.052;2022-07-30T13:02:56;96597.91;;;19.62;100.00
57763;BME280;43592;42.524;12.052;2022-07-30T13:05:44;96614.47;;;20.23;100.00
57763;BME280;43592;42.524;12.052;2022-07-30T13:08:11;96624.97;;;20.62;100.00
57763;BME280;43592;42.524;12.052;2022-07-30T13:10:36;96624.63;;;20.91;100.00
57763;BME280;43592;42.524;12.052;2022-07-30T13:13:02;96623.91;;;21.48;100.00
57763;BME280;43592;42.524;12.052;2022-07-30T13:15:29;96622.28;;;21.55;100.00
57763;BME280;43592;42.524;12.052;2022-07-30T13:17:55;96624.06;;;21.65;100.00
57763;BME280;43592;42.524;12.052;2022-07-30T13:20:20;96626.47;;;21.59;100.00
57763;BME280;43592;42.524;12.052;2022-07-30T13:22:46;96618.38;;;21.56;100.00
57763;BME280;43592;42.524;12.052;2022-07-30T13:25:13;96622.47;;;21.67;100.00
57763;BME280;43592;42.524;12.052;2022-07-30T13:27:38;96623.44;;;21.81;100.00